SEASEATTLE-TACOMA INTL
METARs for nearby airports:
N 0 432' KSEA 141353Z 21012KT 10SM SCT033 SCT065 BKN150 10/03 A3024
NE 4 32' KRNT 141353Z 00000KT 8SM OVC040 09/03 A3024
N 4 21' KBFI 141353Z 17006KT 10SM FEW040 SCT055 08/03 A3025
SW 15 294' KTIW 141353Z 25003KT 10SM OVC033 09/03 A3026
W 18 444' KPWT 141356Z 22009KT 6SM -RA BR OVC034 07/06 A3025
S 19 322' KTCM 141358Z 00000KT 7SM OVC035 07/07 A3025
S 20 537' KPLU 141355Z VRB04KT 10SM OVC034 13/05 A3025
SW 24 300' KGRF 141358Z 00000KT 10SM OVC032 08/08 A3024
N 27 607' KPAE 141353Z 16023G32KT 10SM CLR 10/03 A3020
W 36 272' KSHN 141353Z 00000KT 6SM BR OVC029 08/06 A3024
SW 37 207' KOLM 141354Z 21009KT 10SM OVC035 09/02 A3027
N 43 141' KAWO 141356Z 16012G21KT 10SM OVC042 11/02 A3022
SW 53 177' KCLS 141355Z 16011G17KT 10SM OVC035 08/04 A3030
N 55 47' KNUW 141356Z 14021G29KT 9SM FEW012 SCT040 OVC085 13/04 A3017
NW 60 13' KNOW 141330Z 00000KT 10SM SCT065 SCT075 BKN095 08/07 A3012
N 61 145' KBVS 141355Z 14011G20KT 10SM FEW046 BKN060 OVC075 10/03 A3018
NW 62 291' KCLM 141353Z 00000KT 3SM -RA BR BKN005 BKN035 OVC100 07/07 A3012
NW 70 112' KFHR 141353Z 12006KT 5SM -RA BKN055 OVC070 10/06 A3013
SW 72 17' KHQM 141353Z 16016G20KT 6SM BR OVC012 10/08 A3025
E 76 1763' KELN 141353Z 00000KT 1 1/2SM BR OVC002 M02/M03 A3032
N 79 34' KORS 141355Z 17013G20KT 8SM FEW042 OVC048 11/05 A3010
N 81 171' KBLI 141353Z 14018G23KT 10SM OVC044 12/03 A3013
S 83 20' KKLS 141356Z 15006KT 10SM -RA OVC040 05/03 A3037
NW 84 64' CYYJ 141300Z 10004KT 4SM -RA BR FEW002 FEW007 FEW017 OVC028 08/08 A3014
E 85 1248' KEAT 141355Z 12005KT 2 1/2SM BR OVC003 M01/M02 A3034
SE 89 1098' KYKM 141353Z 00000KT 3SM BR OVC003 M01/M02 A3039
W 95 193' KUIL 141353Z 19012G23KT 140V230 1 3/4SM +RA BR OVC008 10/09 A3013
TAFs for nearby airports:
N 0 432' KSEA KSEA 141122Z 1412/1518 18008KT P6SM SCT030 OVC045
  FM141500 19012KT P6SM -RA BKN030 OVC040
  FM141800 19012G20KT P6SM -RA OVC022
  FM142200 18011KT P6SM VCSH OVC015
  FM150400 18005KT P6SM SCT009 OVC012
N 4 21' KBFI TAF KBFI 141122Z 1412/1512 16008KT P6SM SCT030 OVC050
  FM141500 16012KT P6SM -RA BKN035 OVC050
  FM141800 16012G18KT P6SM -RA OVC025
  FM142200 17010KT P6SM VCSH OVC018
  FM150400 17005KT P6SM OVC015
W 18 444' KPWT TAF KPWT 141122Z 1412/1512 20008KT P6SM VCSH OVC040
  FM141500 19012G20KT 4SM -RA BKN025 OVC050
  FM142100 19012KT P6SM VCSH SCT007 OVC015
  FM150300 18005KT 6SM BR OVC011
  FM150700 18004KT 4SM BR OVC007
S 19 322' KTCM TAF KTCM 141300Z 1413/1519 21009KT 9999 BKN030 QNH3026INS
  BECMG 1415/1416 20012G18KT 8000 -SHRA BKN020 610704 QNH3027INS
  BECMG 1420/1421 22009KT 9999 NSW BKN030 610704 QNH3029INS
  BECMG 1502/1503 20006KT 9999 BKN015 QNH3031INS
  BECMG 1505/1506 VRB06KT 8000 BR BKN050 OVC100 610709 QNH3032INS
  BECMG 1513/1514 22006KT 9999 NSW BKN060 QNH3034INS TX12/1421Z TN06/1413Z
SW 24 300' KGRF TAF KGRF 141300Z 1413/1519 21009KT 9999 BKN030 QNH3026INS
  BECMG 1415/1416 20009KT 8000 -SHRA BKN020 QNH3027INS
  BECMG 1420/1421 22009KT 9999 NSW BKN030 QNH3029INS
  BECMG 1502/1503 VRB06KT 9999 BKN040 QNH3031INS
  BECMG 1505/1506 VRB06KT 8000 BR BKN050 OVC100 610709 QNH3032INS
  BECMG 1513/1514 22006KT 9999 NSW BKN060 QNH3034INS TX12/1421Z TN06/1413Z
N 27 607' KPAE TAF KPAE 141122Z 1412/1512 13012G20KT P6SM VCSH OVC035
  FM141400 17015G25KT 6SM -RA BR BKN025 OVC040
  FM142100 17014KT P6SM VCSH SCT009 OVC015
  FM150300 16007KT P6SM BKN007 OVC015
SW 37 207' KOLM KOLM 141122Z 1412/1512 22006KT P6SM VCSH OVC040
  FM141500 21011KT P6SM -RA OVC035
  FM142200 21009KT P6SM VCSH BKN020 BKN040
  FM150500 20004KT 5SM BR BKN007 BKN010
N 55 47' KNUW TAF KNUW 1407/1507 14019G28KT 9000 BR VCSH SCT010 BKN035 OVC050 640709 641602 530009 QNH3021INS
  TEMPO 1408/1414 15012G18KT 8000 -SHRA BR SCT005 BKN020 OVC035
  FM141800 15009KT 9999 -SHRA SCT007 BKN020 OVC035 640607 500000 QNH3030INS
  BECMG 1504/1505 VRB06KT 9000 BR SCT003 BKN015 OVC025 T08/1415Z T14/1423Z FS30111
NW 62 291' KCLM KCLM 141122Z 1412/1512 VRB05KT P6SM -RA SCT012 BKN050
  TEMPO 1412/1416 BKN007 OVC040
  FM141600 26007KT P6SM -RA SCT007 BKN030
  FM142000 29010KT P6SM VCSH BKN030 BKN060
  FM150400 25005KT P6SM OVC017
SW 72 17' KHQM TAF
  AMD KHQM 141202Z 1412/1512 16014G22KT P6SM -RA OVC022
  FM141500 20014G22KT 5SM -RA BR SCT007 OVC015
  FM142100 21009KT P6SM VCSH BKN020
  FM150500 VRB05KT 6SM BR OVC012
N 81 171' KBLI KBLI 141122Z 1412/1512 15011KT 6SM -RA BR OVC040
  TEMPO 1414/1416 BKN025 OVC040
  FM141600 15012G20KT 6SM -RA BR BKN022 OVC040
  FM142100 17010G15KT P6SM VCSH OVC018
  FM150400 17006KT P6SM OVC015
E 85 1248' KEAT KEAT 141125Z 1412/1512 11004KT 4SM BR OVC004
  FM141600 10003KT P6SM OVC008 WS020/26035KT
  FM142000 12004KT P6SM BKN015 WS020/26035KT
  FM142300 33008KT P6SM BKN150
SE 89 1098' KYKM TAF KYKM 141120Z 1412/1512 VRB03KT 3SM BR OVC004
  FM141800 VRB04KT 5SM BR OVC007
  FM142100 21005KT P6SM SCT007 BKN050
  FM150300 27004KT P6SM BKN060
Area forecast:
000
FAUS46 KKCI 101945
FA6W  
SFOC FA 101945
SYNOPSIS AND VFR CLDS/WX
SYNOPSIS VALID UNTIL 111400
CLDS/WX VALID UNTIL 110800...OTLK VALID 110800-111400
WA OR CA AND CSTL WTRS
.
SEE AIRMET SIERRA FOR IFR CONDS AND MTN OBSCN.
TS IMPLY SEV OR GTR TURB SEV ICE LLWS AND IFR CONDS.
NON MSL HGTS DENOTED BY AGL OR CIG.
.
SYNOPSIS...UPR LVL TROF WAS LOCATED NR 130W. MOIST SWLY FLOW
EXTDS FROM PAC NW EWD INTO NRN ROCKIES. HIGH PRES RIDGE WAS OVR
MUCH OF THE REST OF THE AREA. BY 14Z...UPR LVL TROF WILL EXTD
FROM WA-OR SWD INTO CA.  ..STREIB..
.
WA CASCDS WWD
CSTL SXNS
CSTLN-INLAND...SCT-BKN025 BKN035-050 TOPS 120-140. ISOL -SHRA.
   OTLK...MVFR CIGS SHRA BR.
PUGET SOUND-INTR VLY...SCT-BKN020 BKN-OVC035-050 TOPS 160 BKN CI.
   WDLY SCT -SHRA. OTLK...MVFR CIGS SHRA.
CASCDS...BKN-OVC050-070 TOPS FL180. BKN CI ABV. WDLY SCT -SHRA.
   OTLK...MVFR CIGS SHRA.
.
WA E OF CASCDS
CNTRL WA...SCT140 OVC CI. BECMG 2302 SCT080 BKN120 LYRD FL240.
   OTLK...VFR.
ERN WA...SCT-BKN140-160 LYRD FL240. BECMG 0508 BKN080 OVC120
   LYRD FL240 ISOL -SHRA DVLPG. OTLK...VFR.
.
OR CASCDS WWD
CSTL SXNS
CSTLN-INLAND...SCT-BKN020 BKN-OVC035-050 TOPS FL180. WDLY SCT
   -SHRA. OTLK...MVFR CIGS SHRA.
WILLAMETTE VLY/SWRN INTR...SCT-BKN020 BKN-OVC035-050 TOPS FL180.
   WDLY SCT -SHRA. OTLK...MVFR CIGS SHRA.
CASCDS...SCT-BKN060 BKN-OVC080-100 TOPS FL180 ISOL -SHRA.
   OTLK...MVFR CIGS SHRA.
.
OR E OF CASCDS
CNTRL...SCT100-120 BKN150 LYRD FL240. OTLK...VFR.
ERN...SCT130-150 BKN CI. BECMG 0205 OVC120-140 LYRD FL240.
   OTLK...VFR.
.
NRN CA...STS-SAC-TVL LN NWD
CSTL SXNS...
   FOT NWD...SCT025 BKN CI ABV. BECMG 0205 SCT020 OVC050 TOPS
      160. ISOL -SHRA. OTLK...IFR CIGS.
   S OF FOT...SCT-BKN010 TOPS 030-040. OTLK...IFR CIGS.
REST OF AREA...SKC OCNL SCT CI. OCNL VYS 3-5SM FU HZ.
   OTLK...VFR.
SAC VLY...
   NRN AND CNTRL SXNS...SKC. OTLK...VFR.
   SRN SXNS...SKC. OCNL VIS 3-5SM FU HZ. OTLK...MVFR FU HZ.
SHASTA-SISKIYOUS-NERN CA...
NRN SIERRAS...SKC OCNL SCT CI. WINDS SLY G25KT. OTLK...VFR WIND.
.
CNTRL CA
CSTL SXNS...
   CSTLN...SKC OCNL SCT010. BECMG 0508 OCNL CIGS BKN-SCT010 TOPS
      020-030. OTLK...IFR CIGS.
   INLAND...SKC. OTLK...VFR BECMG 1114 IFR CIGS BR.
SAN JOAQUIN VLY...SKC. OTLK...VFR.
SRN SIERRAS..SKC. OTLK...VFR.
.
SRN CA..VBG-NID-60NNW BIH LN SWD
CSTL SXNS...
   CSTLN...
      EXTRM SRN SXNS...SKC. BECMG 0205 SCT010. BECMG 0508 CIGS
         BKN-OVC010 TOPS 030. OTLK...IFR CIGS.
      REST OF AREA...SKC. OTLK...VFR BECMG 0811 IFR CIGS BR.
   INLAND...SKC OCNL FEW CI. OTLK...VFR.
INTR MTNS-MOJAVE-SRN DESERTS...SKC OCNL FEW CI. OTLK...VFR.
.
CSTL WTRS
WA...SCT-BKN035-050 TOPS 100-120. ISOL -SHRA. OTLK...VFR.
OR...
NWRN HLF...SCT-BKN035-050 TOPS 100-120. ISOL -SHRA. OTLK...VFR.
SERN HLF...SCT-BKN025 BKN035-050 TOPS FL180 BKN CI ABV. WDLY SCT
   -SHRA. OTLK...MVFR CIGS SHRA.
CA...
NRN CA...
   FOT NWD...SCT025 BKN CI ABV. BECMG 0205 SCT020 OVC050 TOPS
      160. ISOL -SHRA. OTLK...IFR CIGS.
   S OF FOT...SCT-BKN010 TOPS 030-040. OTLK...IFR CIGS.
CNTRL CA...SCT-BKN010 TOPS 030-040. OTLK...IFR CIGS.
SRN CA...
   OUTER CSTL WTRS...CIGS BKN010-020 TOPS 030-050.
      OTLK...IFR CIGS.
   ADJ CSTL WTRS...SKC. OCNL AGL SCT010. OTLK...VFR BECMG 0811
      IFR CIGS BR.
.
THE AREA FORECAST WILL TERMINATE AT 2359Z ON 10 OCTOBER 2017. IN
PLACE OF THE AREA FORECAST...PLEASE SEE THE GRAPHICAL FORECAST AT
WWW.AVIATIONWEATHER.GOV/GFA. GRAPHICAL AND TEXT AIRMETS WILL
CONTINUE AS REGULARLY SCHEDULED.
....

Shortcut to this page: http://wxbay.com.

Data may contain errors.